createdAt,value
2023-08-08T00:00:15.277Z,6.74
2023-08-08T00:01:50.118Z,6.56
2023-08-08T00:03:24.895Z,6.40
2023-08-08T00:04:59.703Z,6.77
2023-08-08T00:06:34.955Z,6.76
2023-08-08T00:08:09.910Z,6.67
2023-08-08T00:09:44.992Z,6.57
2023-08-08T00:11:19.845Z,6.59
2023-08-08T00:12:54.240Z,7.12
2023-08-08T00:14:29.011Z,7.20
2023-08-08T00:16:04.516Z,7.07
2023-08-08T00:17:39.384Z,6.83
2023-08-08T00:19:14.335Z,6.85
2023-08-08T00:20:49.237Z,7.22
2023-08-08T00:22:24.429Z,7.33
2023-08-08T00:23:59.274Z,7.32
2023-08-08T00:25:34.245Z,7.40
2023-08-08T00:27:09.069Z,7.30
2023-08-08T00:28:43.556Z,7.13
2023-08-08T00:30:18.295Z,7.01
2023-08-08T00:31:52.740Z,7.22
2023-08-08T00:33:27.460Z,7.18
2023-08-08T00:35:01.848Z,7.34
2023-08-08T00:36:36.616Z,7.04
2023-08-08T00:38:11.538Z,7.03
2023-08-08T00:39:48.051Z,6.96
2023-08-08T00:41:23.926Z,6.89
2023-08-08T00:42:58.744Z,6.99
2023-08-08T00:44:33.410Z,6.81
2023-08-08T00:46:08.648Z,7.19
2023-08-08T00:47:43.725Z,6.79
2023-08-08T00:49:18.657Z,6.74
2023-08-08T00:50:55.001Z,6.85
2023-08-08T00:52:29.893Z,6.80
2023-08-08T00:54:05.849Z,6.89
2023-08-08T00:55:41.314Z,6.94
2023-08-08T00:57:16.527Z,6.93
2023-08-08T00:58:52.564Z,6.75
2023-08-08T01:00:27.993Z,7.03
2023-08-08T01:02:03.146Z,7.05
2023-08-08T01:03:38.085Z,7.20
2023-08-08T01:05:13.075Z,6.87
2023-08-08T01:06:50.981Z,6.92
2023-08-08T01:08:32.076Z,6.98
2023-08-08T01:10:22.266Z,6.46
2023-08-08T01:11:58.298Z,6.18
2023-08-08T01:13:35.212Z,6.49
2023-08-08T01:15:11.090Z,6.61
2023-08-08T01:16:46.328Z,6.51
2023-08-08T01:18:21.963Z,6.62
2023-08-08T01:19:57.277Z,6.47
2023-08-08T01:21:34.682Z,6.55
2023-08-08T01:23:13.218Z,6.54
2023-08-08T01:24:48.390Z,6.33
2023-08-08T01:26:24.445Z,6.23
2023-08-08T01:27:59.363Z,6.51
2023-08-08T01:29:34.383Z,6.16
2023-08-08T01:31:09.596Z,6.46
2023-08-08T01:32:44.511Z,5.60
2023-08-08T01:34:19.950Z,5.89
2023-08-08T01:36:02.925Z,5.37
2023-08-08T01:37:44.267Z,5.12
2023-08-08T01:39:24.966Z,5.71
2023-08-08T01:41:01.614Z,5.90
2023-08-08T01:42:36.842Z,5.91
2023-08-08T01:44:12.642Z,6.10
2023-08-08T01:45:47.785Z,5.31
2023-08-08T01:47:22.705Z,5.01
2023-08-08T01:48:59.502Z,5.37
2023-08-08T01:50:34.605Z,5.71
2023-08-08T01:52:09.847Z,5.98
2023-08-08T01:53:44.813Z,5.44
2023-08-08T01:55:19.267Z,5.69
2023-08-08T01:56:54.054Z,5.30
2023-08-08T01:58:28.456Z,5.00
2023-08-08T02:00:05.947Z,5.55
2023-08-08T02:01:40.905Z,5.54
2023-08-08T02:03:16.338Z,5.52
2023-08-08T02:04:51.332Z,5.44
2023-08-08T02:06:25.784Z,5.79
2023-08-08T02:08:00.759Z,6.07
2023-08-08T02:09:35.881Z,5.91
2023-08-08T02:11:10.742Z,6.08
2023-08-08T02:12:45.222Z,6.08
2023-08-08T02:14:19.963Z,6.03
2023-08-08T02:15:55.363Z,5.36
2023-08-08T02:17:31.447Z,5.46
2023-08-08T02:19:06.358Z,5.44
2023-08-08T02:20:40.822Z,5.47
2023-08-08T02:22:15.922Z,5.57
2023-08-08T02:23:50.796Z,5.76
2023-08-08T02:25:25.304Z,5.72
2023-08-08T02:27:00.058Z,5.73
2023-08-08T02:28:35.093Z,5.45
2023-08-08T02:30:10.320Z,5.66
2023-08-08T02:31:45.233Z,5.72
2023-08-08T02:33:19.687Z,5.74
2023-08-08T02:34:54.416Z,5.85
2023-08-08T02:36:29.090Z,6.09
2023-08-08T02:38:04.061Z,6.00
2023-08-08T02:39:38.946Z,5.57
2023-08-08T02:41:13.403Z,5.56
2023-08-08T02:42:48.158Z,5.54
2023-08-08T02:44:24.435Z,5.37
2023-08-08T02:45:59.325Z,5.32
2023-08-08T02:47:34.300Z,5.55
2023-08-08T02:49:08.992Z,5.60
2023-08-08T02:50:43.728Z,5.84
2023-08-08T02:52:18.724Z,5.70
2023-08-08T02:53:53.558Z,5.65
2023-08-08T02:55:28.445Z,5.78
2023-08-08T02:57:02.882Z,5.77
2023-08-08T02:58:37.689Z,5.77
2023-08-08T03:00:13.468Z,6.04
2023-08-08T03:01:49.352Z,5.98
2023-08-08T03:03:24.269Z,6.00
2023-08-08T03:04:59.139Z,5.98
2023-08-08T03:06:33.616Z,5.64
2023-08-08T03:08:08.802Z,5.81
2023-08-08T03:09:43.719Z,5.69
2023-08-08T03:11:18.160Z,5.60
2023-08-08T03:12:53.156Z,5.82
2023-08-08T03:14:28.058Z,5.68
2023-08-08T03:16:02.476Z,5.82
2023-08-08T03:17:37.415Z,5.81
2023-08-08T03:19:13.161Z,6.00
2023-08-08T03:20:48.038Z,5.95
2023-08-08T03:22:22.976Z,6.03
2023-08-08T03:23:57.452Z,6.04
2023-08-08T03:25:32.619Z,6.16
2023-08-08T03:27:07.685Z,6.22
2023-08-08T03:28:42.588Z,5.98
2023-08-08T03:30:17.032Z,5.79
2023-08-08T03:31:52.428Z,5.88
2023-08-08T03:33:27.237Z,5.78
2023-08-08T03:35:02.213Z,5.73
2023-08-08T03:36:37.137Z,5.84
2023-08-08T03:38:12.026Z,5.95
2023-08-08T03:39:46.797Z,5.86
2023-08-08T03:41:21.220Z,5.89
2023-08-08T03:42:55.949Z,5.87
2023-08-08T03:44:31.016Z,6.06
2023-08-08T03:46:05.873Z,6.16
2023-08-08T03:47:40.659Z,6.04
2023-08-08T03:49:15.526Z,5.72
2023-08-08T03:50:50.597Z,5.79
2023-08-08T03:52:26.178Z,5.77
2023-08-08T03:54:00.999Z,5.78
2023-08-08T03:55:35.687Z,5.70
2023-08-08T03:57:10.691Z,5.95
2023-08-08T03:58:45.641Z,5.91
2023-08-08T04:00:20.548Z,6.05
2023-08-08T04:01:54.958Z,6.12
2023-08-08T04:03:30.264Z,6.30
2023-08-08T04:05:05.210Z,6.28
2023-08-08T04:06:39.626Z,6.28
2023-08-08T04:08:14.829Z,5.82
2023-08-08T04:09:49.900Z,5.58
2023-08-08T04:11:24.751Z,5.36
2023-08-08T04:12:59.172Z,5.41
2023-08-08T04:14:33.953Z,5.55
2023-08-08T04:16:09.005Z,5.58
2023-08-08T04:17:43.834Z,6.03
2023-08-08T04:19:18.728Z,6.11
2023-08-08T04:20:53.269Z,6.24
2023-08-08T04:22:28.288Z,5.79
2023-08-08T04:24:04.273Z,5.55
2023-08-08T04:25:39.182Z,5.37
2023-08-08T04:27:13.985Z,5.34
2023-08-08T04:28:48.977Z,5.10
2023-08-08T04:30:24.990Z,4.76
2023-08-08T04:32:00.119Z,4.76
2023-08-08T04:33:35.244Z,4.87
2023-08-08T04:35:10.392Z,4.96
2023-08-08T04:36:45.300Z,4.96
2023-08-08T04:38:19.734Z,5.02
2023-08-08T04:39:54.555Z,5.01
2023-08-08T04:41:30.036Z,5.04
2023-08-08T04:43:05.063Z,4.90
2023-08-08T04:44:39.476Z,4.94
2023-08-08T04:46:14.439Z,4.95
2023-08-08T04:47:50.205Z,5.03
2023-08-08T04:49:25.162Z,5.07
2023-08-08T04:50:59.573Z,4.87
2023-08-08T04:52:34.307Z,4.90
2023-08-08T04:54:09.372Z,5.03
2023-08-08T04:55:44.272Z,5.24
2023-08-08T04:57:18.717Z,5.10
2023-08-08T04:58:53.506Z,4.75
2023-08-08T05:00:28.921Z,4.76
2023-08-08T05:02:03.761Z,4.77
2023-08-08T05:03:38.553Z,4.62
2023-08-08T05:05:13.460Z,4.95
2023-08-08T05:06:48.663Z,4.97
2023-08-08T05:08:23.513Z,5.01
2023-08-08T05:09:58.681Z,5.00
2023-08-08T05:11:33.500Z,5.12
2023-08-08T05:13:08.145Z,5.16
2023-08-08T05:14:42.920Z,5.13
2023-08-08T05:16:17.599Z,5.31
2023-08-08T05:17:53.274Z,5.36
2023-08-08T05:19:28.350Z,5.29
2023-08-08T05:21:03.255Z,5.44
2023-08-08T05:22:37.686Z,5.50
2023-08-08T05:24:12.508Z,5.58
2023-08-08T05:25:47.512Z,5.80
2023-08-08T05:27:22.273Z,5.78
2023-08-08T05:28:56.696Z,5.85
2023-08-08T05:30:31.492Z,5.95
2023-08-08T05:32:08.877Z,5.97
2023-08-08T05:33:43.867Z,6.17
2023-08-08T05:35:18.912Z,6.10
2023-08-08T05:37:10.138Z,5.94
2023-08-08T05:38:48.860Z,6.21
2023-08-08T05:40:23.747Z,6.29
2023-08-08T05:41:58.193Z,6.56
2023-08-08T05:43:33.020Z,6.60
2023-08-08T05:45:08.990Z,7.06
2023-08-08T05:46:43.833Z,7.37
2023-08-08T05:48:18.301Z,7.01
2023-08-08T05:49:53.159Z,6.83
2023-08-08T05:51:28.178Z,6.86
2023-08-08T05:53:03.053Z,6.70
2023-08-08T05:54:37.521Z,6.90
2023-08-08T05:56:12.284Z,7.07
2023-08-08T05:57:46.911Z,7.28
2023-08-08T05:59:21.652Z,7.21
2023-08-08T06:00:56.116Z,7.41
2023-08-08T06:02:30.843Z,7.57
2023-08-08T06:04:05.737Z,7.59
2023-08-08T06:05:40.609Z,7.64
2023-08-08T06:07:16.023Z,7.97
2023-08-08T06:08:50.860Z,8.29
2023-08-08T06:10:27.272Z,8.40
2023-08-08T06:12:02.308Z,8.49
2023-08-08T06:13:39.979Z,8.48
2023-08-08T06:15:14.998Z,8.30
2023-08-08T06:16:50.046Z,8.38
2023-08-08T06:18:24.965Z,8.50
2023-08-08T06:19:59.849Z,8.49
2023-08-08T06:21:34.730Z,8.70
2023-08-08T06:23:09.346Z,8.82
2023-08-08T06:24:44.201Z,8.76
2023-08-08T06:26:19.102Z,8.85
2023-08-08T06:27:54.339Z,9.03
2023-08-08T06:29:29.731Z,9.06
2023-08-08T06:31:04.790Z,9.10
2023-08-08T06:32:39.244Z,9.10
2023-08-08T06:34:14.118Z,9.18
2023-08-08T06:35:49.145Z,9.33
2023-08-08T06:37:23.955Z,9.54
2023-08-08T06:38:58.437Z,9.38
2023-08-08T06:40:33.885Z,9.57
2023-08-08T06:42:09.201Z,9.66
2023-08-08T06:43:44.073Z,9.71
2023-08-08T06:45:18.827Z,9.87
2023-08-08T06:46:53.793Z,9.62
2023-08-08T06:48:29.272Z,9.97
2023-08-08T06:50:04.303Z,9.95
2023-08-08T06:51:39.509Z,10.03
2023-08-08T06:53:14.372Z,10.30
2023-08-08T06:54:49.013Z,10.43
2023-08-08T06:56:23.876Z,10.52
2023-08-08T06:57:58.975Z,10.65
2023-08-08T06:59:34.116Z,10.89
2023-08-08T07:01:09.278Z,11.02
2023-08-08T07:02:44.410Z,11.06
2023-08-08T07:04:20.039Z,11.14
2023-08-08T07:05:54.968Z,11.32
2023-08-08T07:07:32.415Z,11.59
2023-08-08T07:09:08.154Z,11.45
2023-08-08T07:10:43.075Z,11.31
2023-08-08T07:12:18.211Z,11.37
2023-08-08T07:13:53.296Z,11.66
2023-08-08T07:15:28.449Z,11.90
2023-08-08T07:17:05.646Z,12.26
2023-08-08T07:18:40.590Z,12.30
2023-08-08T07:20:20.562Z,12.26
2023-08-08T07:21:55.745Z,12.26
2023-08-08T07:23:31.168Z,12.28
2023-08-08T07:25:08.024Z,12.64
2023-08-08T07:26:43.179Z,12.71
2023-08-08T07:28:18.074Z,12.84
2023-08-08T07:29:53.039Z,12.98
2023-08-08T07:31:27.956Z,13.36
2023-08-08T07:33:03.372Z,13.33
2023-08-08T07:34:38.365Z,13.50
2023-08-08T07:36:13.349Z,13.70
2023-08-08T07:37:48.173Z,13.79
2023-08-08T07:39:22.786Z,14.03
2023-08-08T07:40:57.592Z,14.15
2023-08-08T07:42:32.470Z,14.21
2023-08-08T07:44:07.857Z,14.57
2023-08-08T07:45:43.606Z,14.64
2023-08-08T07:47:18.445Z,14.68
2023-08-08T07:48:53.301Z,14.79
2023-08-08T07:50:28.274Z,14.88
2023-08-08T07:52:03.556Z,15.20
2023-08-08T07:53:38.390Z,15.39
2023-08-08T07:55:13.223Z,15.08
2023-08-08T07:56:48.081Z,15.45
2023-08-08T07:58:25.420Z,15.50
2023-08-08T08:00:00.352Z,15.64
2023-08-08T08:01:35.315Z,15.89
2023-08-08T08:03:10.375Z,15.82
2023-08-08T08:04:45.530Z,15.86
2023-08-08T08:06:20.373Z,15.72
2023-08-08T08:07:55.226Z,15.90
2023-08-08T08:09:30.408Z,15.94
2023-08-08T08:11:05.880Z,16.25
2023-08-08T08:12:40.990Z,16.46
2023-08-08T08:14:15.916Z,16.65
2023-08-08T08:15:50.814Z,16.68
2023-08-08T08:17:25.926Z,16.56
2023-08-08T08:19:00.787Z,16.41
2023-08-08T08:20:35.968Z,16.61
2023-08-08T08:22:11.092Z,16.90
2023-08-08T08:23:46.822Z,16.84
2023-08-08T08:25:22.024Z,17.01
2023-08-08T08:26:56.946Z,16.96
2023-08-08T08:28:32.045Z,17.25
2023-08-08T08:30:10.490Z,17.20
2023-08-08T08:31:45.472Z,17.40
2023-08-08T08:33:20.757Z,17.31
2023-08-08T08:34:55.820Z,17.64
2023-08-08T08:36:31.027Z,17.39
2023-08-08T08:38:06.661Z,17.45
2023-08-08T08:39:41.555Z,17.70
2023-08-08T08:41:21.429Z,17.61
2023-08-08T08:42:56.866Z,17.65
2023-08-08T08:44:36.340Z,17.79
2023-08-08T08:46:14.359Z,17.70
2023-08-08T08:47:50.591Z,17.70
2023-08-08T08:49:28.537Z,17.84
2023-08-08T08:51:04.940Z,18.06
2023-08-08T08:52:40.289Z,18.12
2023-08-08T08:54:17.234Z,18.23
2023-08-08T08:55:53.901Z,18.47
2023-08-08T08:57:29.202Z,18.38
2023-08-08T08:59:04.463Z,18.73
2023-08-08T09:00:39.405Z,18.74
2023-08-08T09:02:16.058Z,18.56
2023-08-08T09:03:51.210Z,18.76
2023-08-08T09:05:27.875Z,19.00
2023-08-08T09:07:03.426Z,18.86
2023-08-08T09:08:40.499Z,18.97
2023-08-08T09:10:18.644Z,18.95
2023-08-08T09:11:58.409Z,19.13
2023-08-08T09:13:40.981Z,19.17
2023-08-08T09:15:16.022Z,19.20
2023-08-08T09:16:51.668Z,19.46
2023-08-08T09:18:26.961Z,19.73
2023-08-08T09:20:02.044Z,19.57
2023-08-08T09:21:37.214Z,19.36
2023-08-08T09:23:12.079Z,19.64
2023-08-08T09:24:48.311Z,19.56
2023-08-08T09:26:24.107Z,19.60
2023-08-08T09:27:58.991Z,19.53
2023-08-08T09:29:35.173Z,19.70
2023-08-08T09:31:10.479Z,19.62
2023-08-08T09:32:48.015Z,20.00
2023-08-08T09:34:28.340Z,20.03
2023-08-08T09:36:03.206Z,19.85
2023-08-08T09:37:38.145Z,19.57
2023-08-08T09:39:13.229Z,19.51
2023-08-08T09:40:48.454Z,19.51
2023-08-08T09:42:23.325Z,20.29
2023-08-08T09:43:58.288Z,20.71
2023-08-08T09:45:40.976Z,20.72
2023-08-08T09:47:17.256Z,20.51
2023-08-08T09:48:53.231Z,20.62
2023-08-08T09:50:28.302Z,20.63
2023-08-08T09:52:04.442Z,20.86
2023-08-08T09:53:40.685Z,21.24
2023-08-08T09:55:16.233Z,20.61
2023-08-08T09:56:53.555Z,20.86
2023-08-08T09:58:29.912Z,20.74
2023-08-08T10:00:07.583Z,20.66
2023-08-08T10:01:44.140Z,21.22
2023-08-08T10:03:19.732Z,21.30
2023-08-08T10:04:57.311Z,21.43
2023-08-08T10:06:33.613Z,21.49
2023-08-08T10:08:08.531Z,21.43
2023-08-08T10:09:43.721Z,21.74
2023-08-08T10:11:20.485Z,21.61
2023-08-08T10:12:55.529Z,21.58
2023-08-08T10:14:34.691Z,21.80
2023-08-08T10:16:12.620Z,21.57
2023-08-08T10:17:49.432Z,21.64
2023-08-08T10:19:25.927Z,21.67
2023-08-08T10:21:01.095Z,21.81
2023-08-08T10:22:36.049Z,21.77
2023-08-08T10:24:12.530Z,21.72
2023-08-08T10:25:49.030Z,22.09
2023-08-08T10:27:33.187Z,21.99
2023-08-08T10:29:08.712Z,21.67
2023-08-08T10:31:04.014Z,22.02
2023-08-08T10:32:44.534Z,22.37
2023-08-08T10:34:23.878Z,22.42
2023-08-08T10:35:58.968Z,22.46
2023-08-08T10:37:34.676Z,22.72
2023-08-08T10:39:18.435Z,21.79
2023-08-08T10:41:05.085Z,22.13
2023-08-08T10:42:48.766Z,22.44
2023-08-08T10:44:27.691Z,22.25
2023-08-08T10:46:14.230Z,21.77
2023-08-08T10:47:51.919Z,21.95
2023-08-08T10:49:26.933Z,21.81
2023-08-08T10:51:03.675Z,22.36
2023-08-08T10:52:56.116Z,22.24
2023-08-08T10:54:32.714Z,22.48
2023-08-08T10:56:08.458Z,22.67
2023-08-08T10:57:43.628Z,22.35
2023-08-08T10:59:30.434Z,22.57
2023-08-08T11:01:09.596Z,22.92
2023-08-08T11:02:48.915Z,22.54
2023-08-08T11:04:27.779Z,22.81
2023-08-08T11:06:05.580Z,22.68
2023-08-08T11:07:40.691Z,22.56
2023-08-08T11:09:17.157Z,22.69
2023-08-08T11:10:55.197Z,22.90
2023-08-08T11:12:30.269Z,22.29
2023-08-08T11:14:18.831Z,22.83
2023-08-08T11:15:53.748Z,22.91
2023-08-08T11:17:29.196Z,23.05
2023-08-08T11:19:06.809Z,23.33
2023-08-08T11:20:42.256Z,22.67
2023-08-08T11:22:17.306Z,22.71
2023-08-08T11:23:52.158Z,22.72
2023-08-08T11:25:32.124Z,22.62
2023-08-08T11:27:07.702Z,22.80
2023-08-08T11:28:52.489Z,22.96
2023-08-08T11:30:32.534Z,22.74
2023-08-08T11:32:08.502Z,22.54
2023-08-08T11:33:43.436Z,22.74
2023-08-08T11:35:20.126Z,22.67
2023-08-08T11:36:57.222Z,22.57
2023-08-08T11:38:32.715Z,22.29
2023-08-08T11:40:10.689Z,22.52
2023-08-08T11:41:47.632Z,22.77
2023-08-08T11:43:23.305Z,22.54
2023-08-08T11:44:58.258Z,22.66
2023-08-08T11:46:33.846Z,22.98
2023-08-08T11:48:12.714Z,22.69
2023-08-08T11:49:50.609Z,22.43
2023-08-08T11:51:25.671Z,22.59
2023-08-08T11:53:01.664Z,22.68
2023-08-08T11:54:39.005Z,22.69
2023-08-08T11:56:14.587Z,22.73
2023-08-08T11:57:50.792Z,22.21
2023-08-08T11:59:26.940Z,22.20
2023-08-08T12:01:02.249Z,22.13
2023-08-08T12:02:42.576Z,22.07
2023-08-08T12:04:17.843Z,22.33
2023-08-08T12:05:53.299Z,22.50
2023-08-08T12:07:28.197Z,22.50
2023-08-08T12:09:05.415Z,22.12
2023-08-08T12:10:40.319Z,22.06
2023-08-08T12:12:20.206Z,22.19
2023-08-08T12:14:02.553Z,22.04
2023-08-08T12:15:40.614Z,22.14
2023-08-08T12:17:16.100Z,22.06
2023-08-08T12:18:51.072Z,21.95
2023-08-08T12:20:29.069Z,21.84
2023-08-08T12:22:04.196Z,22.05
2023-08-08T12:23:39.459Z,22.16
2023-08-08T12:25:15.106Z,22.20
2023-08-08T12:26:50.592Z,22.29
2023-08-08T12:28:25.802Z,22.25
2023-08-08T12:30:00.705Z,22.22
2023-08-08T12:31:35.699Z,22.17
2023-08-08T12:33:10.668Z,22.10
2023-08-08T12:34:45.713Z,21.84
2023-08-08T12:36:20.555Z,21.83
2023-08-08T12:37:55.924Z,21.98
2023-08-08T12:39:31.806Z,21.82
2023-08-08T12:41:07.534Z,22.06
2023-08-08T12:42:42.690Z,22.20
2023-08-08T12:44:17.607Z,22.33
2023-08-08T12:45:52.448Z,22.26
2023-08-08T12:47:28.094Z,22.18
2023-08-08T12:49:02.930Z,22.07
2023-08-08T12:50:37.893Z,21.83
2023-08-08T12:52:12.890Z,21.76
2023-08-08T12:53:48.515Z,21.75
2023-08-08T12:55:23.409Z,21.90
2023-08-08T12:56:58.494Z,21.96
2023-08-08T12:58:33.685Z,22.16
2023-08-08T13:00:11.203Z,22.01
2023-08-08T13:01:46.107Z,21.99
2023-08-08T13:03:21.226Z,22.11
2023-08-08T13:04:56.187Z,22.16
2023-08-08T13:06:31.488Z,22.05
2023-08-08T13:08:06.744Z,22.12
2023-08-08T13:09:42.093Z,22.17
2023-08-08T13:11:17.021Z,21.77
2023-08-08T13:12:52.092Z,21.91
2023-08-08T13:14:27.425Z,21.74
2023-08-08T13:16:02.625Z,21.83
2023-08-08T13:17:38.020Z,21.94
2023-08-08T13:19:13.423Z,22.03
2023-08-08T13:20:48.379Z,21.89
2023-08-08T13:22:24.303Z,21.87
2023-08-08T13:24:00.275Z,21.72
2023-08-08T13:25:36.551Z,21.82
2023-08-08T13:27:11.515Z,21.64
2023-08-08T13:28:46.681Z,21.62
2023-08-08T13:30:23.670Z,21.81
2023-08-08T13:31:59.368Z,21.78
2023-08-08T13:33:34.448Z,21.74
2023-08-08T13:35:09.635Z,21.72
2023-08-08T13:36:44.629Z,21.58
2023-08-08T13:38:19.762Z,21.45
2023-08-08T13:39:54.983Z,21.50
2023-08-08T13:41:29.898Z,21.53
2023-08-08T13:43:04.796Z,21.55
2023-08-08T13:44:39.723Z,21.61
2023-08-08T13:46:14.659Z,21.73
2023-08-08T13:47:49.753Z,21.73
2023-08-08T13:49:28.138Z,21.67
2023-08-08T13:51:06.428Z,21.55
2023-08-08T13:52:42.184Z,21.50
2023-08-08T13:54:17.051Z,21.51
2023-08-08T13:55:53.976Z,21.50
2023-08-08T13:57:29.493Z,21.49
2023-08-08T13:59:04.541Z,21.44
2023-08-08T14:00:39.425Z,21.52
2023-08-08T14:02:14.451Z,21.52
2023-08-08T14:03:49.982Z,21.44
2023-08-08T14:05:25.176Z,21.49
2023-08-08T14:07:00.028Z,21.52
2023-08-08T14:08:34.942Z,21.53
2023-08-08T14:10:11.885Z,21.44
2023-08-08T14:11:46.704Z,21.36
2023-08-08T14:13:21.628Z,21.39
2023-08-08T14:14:56.477Z,21.28
2023-08-08T14:16:32.582Z,21.29
2023-08-08T14:18:07.550Z,21.34
2023-08-08T14:19:42.592Z,21.31
2023-08-08T14:21:18.065Z,21.20
2023-08-08T14:22:53.338Z,21.15
2023-08-08T14:24:28.182Z,21.10
2023-08-08T14:26:03.062Z,21.11
2023-08-08T14:27:37.956Z,21.05
2023-08-08T14:29:13.064Z,21.13
2023-08-08T14:30:48.008Z,21.07
2023-08-08T14:32:22.967Z,21.06
2023-08-08T14:33:57.944Z,21.10
2023-08-08T14:35:33.030Z,21.12
2023-08-08T14:37:08.683Z,21.11
2023-08-08T14:38:43.613Z,21.05
2023-08-08T14:40:18.556Z,21.01
2023-08-08T14:41:53.802Z,21.08
2023-08-08T14:43:28.749Z,21.12
2023-08-08T14:45:03.617Z,21.02
2023-08-08T14:46:38.474Z,20.95
2023-08-08T14:48:13.606Z,20.97
2023-08-08T14:49:49.168Z,20.84
2023-08-08T14:51:24.288Z,20.70
2023-08-08T14:52:59.177Z,20.69
2023-08-08T14:54:34.386Z,20.59
2023-08-08T14:56:10.169Z,20.53
2023-08-08T14:57:45.076Z,20.57
2023-08-08T14:59:19.969Z,20.51
2023-08-08T15:00:55.358Z,20.52
2023-08-08T15:02:30.464Z,20.43
2023-08-08T15:04:05.691Z,20.32
2023-08-08T15:05:41.152Z,20.40
2023-08-08T15:07:16.247Z,20.36
2023-08-08T15:08:51.908Z,20.24
2023-08-08T15:10:26.826Z,20.12
2023-08-08T15:12:01.663Z,19.96
2023-08-08T15:13:37.032Z,19.91
2023-08-08T15:15:12.381Z,19.78
2023-08-08T15:16:56.556Z,19.63
2023-08-08T15:18:31.362Z,19.57
2023-08-08T15:20:07.163Z,19.38
2023-08-08T15:21:42.028Z,19.16
2023-08-08T15:23:16.894Z,19.15
2023-08-08T15:24:51.786Z,19.05
2023-08-08T15:26:26.867Z,18.94
2023-08-08T15:28:01.824Z,18.63
2023-08-08T15:29:36.762Z,18.62
2023-08-08T15:31:11.704Z,18.58
2023-08-08T15:32:46.834Z,18.51
2023-08-08T15:34:21.694Z,18.33
2023-08-08T15:35:56.598Z,17.81
2023-08-08T15:37:31.601Z,17.85
2023-08-08T15:39:07.112Z,17.56
2023-08-08T15:40:42.052Z,17.44
2023-08-08T15:42:16.979Z,17.51
2023-08-08T15:43:52.102Z,17.48
2023-08-08T15:45:28.006Z,17.38
2023-08-08T15:47:03.445Z,17.31
2023-08-08T15:48:38.726Z,17.27
2023-08-08T15:50:14.319Z,17.11
2023-08-08T15:51:50.304Z,17.20
2023-08-08T15:53:25.329Z,17.26
2023-08-08T15:55:00.407Z,17.48
2023-08-08T15:56:38.995Z,17.17
2023-08-08T15:58:14.177Z,16.86
2023-08-08T15:59:49.144Z,16.77
2023-08-08T16:01:24.120Z,16.66
2023-08-08T16:03:01.191Z,16.66
2023-08-08T16:04:36.853Z,16.48
2023-08-08T16:06:11.891Z,16.30
2023-08-08T16:07:46.909Z,16.23
2023-08-08T16:09:21.739Z,16.26
2023-08-08T16:10:56.850Z,16.35
2023-08-08T16:12:32.157Z,16.30
2023-08-08T16:14:07.134Z,16.46
2023-08-08T16:15:43.025Z,16.47
2023-08-08T16:17:18.189Z,16.54
2023-08-08T16:18:54.056Z,16.39
2023-08-08T16:20:28.903Z,15.90
2023-08-08T16:22:05.029Z,15.86
2023-08-08T16:23:42.120Z,15.43
2023-08-08T16:25:17.305Z,15.43
2023-08-08T16:26:52.700Z,15.60
2023-08-08T16:28:28.442Z,15.80
2023-08-08T16:30:04.531Z,15.65
2023-08-08T16:31:43.337Z,15.84
2023-08-08T16:33:18.209Z,15.60
2023-08-08T16:34:53.165Z,15.56
2023-08-08T16:36:28.292Z,15.45
2023-08-08T16:38:03.228Z,15.50
2023-08-08T16:39:38.260Z,15.24
2023-08-08T16:41:13.639Z,15.03
2023-08-08T16:42:51.448Z,14.82
2023-08-08T16:44:26.730Z,15.09
2023-08-08T16:46:01.735Z,14.77
2023-08-08T16:47:36.726Z,14.37
2023-08-08T16:49:12.386Z,14.16
2023-08-08T16:50:47.255Z,14.02
2023-08-08T16:52:22.184Z,14.13
2023-08-08T16:53:57.321Z,14.08
2023-08-08T16:55:32.886Z,14.21
2023-08-08T16:57:08.356Z,14.40
2023-08-08T16:58:44.257Z,14.28
2023-08-08T17:00:19.427Z,14.49
2023-08-08T17:01:54.540Z,14.62
2023-08-08T17:03:29.467Z,14.41
2023-08-08T17:05:05.402Z,14.63
2023-08-08T17:06:41.567Z,14.54
2023-08-08T17:08:16.799Z,13.93
2023-08-08T17:09:51.753Z,13.81
2023-08-08T17:11:28.846Z,13.80
2023-08-08T17:13:05.477Z,13.64
2023-08-08T17:14:40.712Z,13.90
2023-08-08T17:16:17.720Z,13.78
2023-08-08T17:17:52.602Z,13.58
2023-08-08T17:19:27.833Z,13.63
2023-08-08T17:21:03.675Z,13.69
2023-08-08T17:22:38.861Z,13.77
2023-08-08T17:24:14.776Z,13.81
2023-08-08T17:25:49.638Z,13.68
2023-08-08T17:27:26.061Z,13.63
2023-08-08T17:29:00.987Z,13.57
2023-08-08T17:30:35.872Z,13.53
2023-08-08T17:32:12.277Z,13.46
2023-08-08T17:33:48.034Z,13.30
2023-08-08T17:35:24.050Z,13.35
2023-08-08T17:36:58.944Z,13.01
2023-08-08T17:38:34.564Z,12.72
2023-08-08T17:40:12.191Z,12.70
2023-08-08T17:41:47.192Z,12.83
2023-08-08T17:43:22.154Z,13.02
2023-08-08T17:44:57.121Z,12.68
2023-08-08T17:46:32.577Z,13.15
2023-08-08T17:48:08.123Z,13.31
2023-08-08T17:49:43.063Z,12.95
2023-08-08T17:51:18.293Z,13.06
2023-08-08T17:52:53.660Z,13.35
2023-08-08T17:54:29.469Z,13.10
2023-08-08T17:56:05.052Z,13.04
2023-08-08T17:57:39.928Z,12.61
2023-08-08T17:59:15.100Z,13.11
2023-08-08T18:00:51.147Z,13.01
2023-08-08T18:02:27.100Z,13.04
2023-08-08T18:04:02.175Z,13.11
2023-08-08T18:05:41.291Z,13.11
2023-08-08T18:07:16.252Z,13.03
2023-08-08T18:08:51.198Z,13.25
2023-08-08T18:10:27.610Z,13.05
2023-08-08T18:12:05.422Z,12.98
2023-08-08T18:13:41.458Z,13.08
2023-08-08T18:15:16.330Z,13.21
2023-08-08T18:16:51.271Z,12.98
2023-08-08T18:18:28.405Z,12.79
2023-08-08T18:20:03.304Z,12.69
2023-08-08T18:21:38.401Z,12.82
2023-08-08T18:23:13.296Z,12.83
2023-08-08T18:24:48.701Z,12.70
2023-08-08T18:26:24.088Z,12.54
2023-08-08T18:30:47.393Z,12.73
2023-08-08T18:32:22.425Z,12.67
2023-08-08T18:34:12.552Z,12.43
2023-08-08T18:35:47.811Z,12.56
2023-08-08T18:37:24.183Z,12.43
2023-08-08T18:39:14.536Z,12.44
2023-08-08T18:40:49.421Z,12.50
2023-08-08T18:42:24.274Z,12.39
2023-08-08T18:43:59.227Z,12.28
2023-08-08T18:45:37.150Z,12.11
2023-08-08T18:47:12.312Z,12.10
2023-08-08T18:48:47.345Z,11.94
2023-08-08T18:50:22.716Z,12.33
2023-08-08T18:51:58.000Z,11.98
2023-08-08T18:53:34.175Z,12.21
2023-08-08T18:55:09.472Z,12.00
2023-08-08T18:56:44.351Z,12.06
2023-08-08T18:58:19.602Z,12.15
2023-08-08T18:59:54.499Z,12.29
2023-08-08T19:01:29.813Z,12.09
2023-08-08T19:03:05.228Z,12.01
2023-08-08T19:04:40.127Z,12.02
2023-08-08T19:06:15.181Z,12.24
2023-08-08T19:07:50.124Z,12.11
2023-08-08T19:09:25.682Z,12.04
2023-08-08T19:11:00.642Z,11.92
2023-08-08T19:12:35.813Z,11.73
2023-08-08T19:14:11.082Z,11.75
2023-08-08T19:15:46.313Z,11.84
2023-08-08T19:17:21.260Z,12.08
2023-08-08T19:18:56.516Z,12.09
2023-08-08T19:20:31.402Z,12.17
2023-08-08T19:22:06.391Z,12.22
2023-08-08T19:23:43.123Z,12.07
2023-08-08T19:25:18.607Z,11.67
2023-08-08T19:26:53.545Z,11.58
2023-08-08T19:28:29.043Z,11.78
2023-08-08T19:30:04.662Z,11.73
2023-08-08T19:31:40.473Z,11.90
2023-08-08T19:33:17.712Z,11.95
2023-08-08T19:34:54.413Z,11.90
2023-08-08T19:36:30.082Z,11.87
2023-08-08T19:38:05.382Z,11.85
2023-08-08T19:39:41.298Z,11.84
2023-08-08T19:41:16.501Z,11.88
2023-08-08T19:42:51.599Z,11.78
2023-08-08T19:44:26.872Z,11.94
2023-08-08T19:46:02.471Z,11.72
2023-08-08T19:47:37.779Z,11.65
2023-08-08T19:49:12.876Z,11.77
2023-08-08T19:50:48.909Z,11.75
2023-08-08T19:52:24.978Z,11.87
2023-08-08T19:54:00.016Z,11.61
2023-08-08T19:55:35.978Z,11.55
2023-08-08T19:57:12.472Z,11.82
2023-08-08T19:58:49.220Z,11.81
2023-08-08T20:00:24.283Z,11.48
2023-08-08T20:02:01.380Z,11.54
2023-08-08T20:03:37.306Z,11.40
2023-08-08T20:05:12.611Z,11.54
2023-08-08T20:06:48.140Z,11.53
2023-08-08T20:08:23.262Z,11.40
2023-08-08T20:09:58.540Z,11.28
2023-08-08T20:11:33.762Z,11.33
2023-08-08T20:13:08.939Z,11.24
2023-08-08T20:14:43.901Z,11.52
2023-08-08T20:16:19.354Z,11.29
2023-08-08T20:17:54.557Z,11.20
2023-08-08T20:19:29.768Z,11.31
2023-08-08T20:21:04.947Z,11.30
2023-08-08T20:22:40.749Z,10.94
2023-08-08T20:24:15.899Z,10.76
2023-08-08T20:25:51.883Z,10.96
2023-08-08T20:27:26.982Z,10.76
2023-08-08T20:29:02.380Z,10.53
2023-08-08T20:30:39.165Z,10.70
2023-08-08T20:32:14.340Z,10.69
2023-08-08T20:33:49.447Z,10.54
2023-08-08T20:35:24.761Z,10.67
2023-08-08T20:37:00.667Z,10.54
2023-08-08T20:38:35.888Z,10.49
2023-08-08T20:40:11.251Z,10.02
2023-08-08T20:41:46.669Z,9.90
2023-08-08T20:43:21.643Z,10.05
2023-08-08T20:44:56.657Z,9.87
2023-08-08T20:46:31.782Z,9.95
2023-08-08T20:48:07.255Z,10.25
2023-08-08T20:49:43.346Z,10.19